sensor_id;sensor_type;location;lat;lon;timestamp;P1;durP1;ratioP1;P2;durP2;ratioP2
48777;SDS011;34578;0.000;0.000;2023-04-24T00:04:48;2.45;;;0.60;;
48777;SDS011;34578;0.000;0.000;2023-04-24T00:09:49;3.38;;;0.80;;
48777;SDS011;34578;0.000;0.000;2023-04-24T00:14:50;2.72;;;0.70;;
48777;SDS011;34578;0.000;0.000;2023-04-24T00:19:51;3.35;;;0.93;;
48777;SDS011;34578;0.000;0.000;2023-04-24T00:24:58;1.17;;;0.70;;
48777;SDS011;34578;0.000;0.000;2023-04-24T00:29:58;3.13;;;0.80;;
48777;SDS011;34578;0.000;0.000;2023-04-24T00:34:59;0.65;;;0.45;;
48777;SDS011;34578;0.000;0.000;2023-04-24T00:39:59;1.67;;;0.50;;
48777;SDS011;34578;0.000;0.000;2023-04-24T00:45:00;1.53;;;0.50;;
48777;SDS011;34578;0.000;0.000;2023-04-24T00:50:04;1.88;;;0.45;;
48777;SDS011;34578;0.000;0.000;2023-04-24T00:55:05;2.08;;;0.40;;
48777;SDS011;34578;0.000;0.000;2023-04-24T01:00:07;3.03;;;0.50;;
48777;SDS011;34578;0.000;0.000;2023-04-24T01:05:13;1.30;;;0.35;;
48777;SDS011;34578;0.000;0.000;2023-04-24T01:10:15;1.75;;;0.40;;
48777;SDS011;34578;0.000;0.000;2023-04-24T01:15:19;1.45;;;0.85;;
48777;SDS011;34578;0.000;0.000;2023-04-24T01:20:20;2.42;;;0.77;;
48777;SDS011;34578;0.000;0.000;2023-04-24T01:25:21;4.38;;;0.85;;
48777;SDS011;34578;0.000;0.000;2023-04-24T01:30:21;1.98;;;0.50;;
48777;SDS011;34578;0.000;0.000;2023-04-24T01:35:22;1.65;;;0.85;;
48777;SDS011;34578;0.000;0.000;2023-04-24T01:40:23;0.80;;;0.50;;
48777;SDS011;34578;0.000;0.000;2023-04-24T01:45:23;1.30;;;0.60;;
48777;SDS011;34578;0.000;0.000;2023-04-24T01:50:24;1.60;;;0.52;;
48777;SDS011;34578;0.000;0.000;2023-04-24T01:55:24;0.80;;;0.28;;
48777;SDS011;34578;0.000;0.000;2023-04-24T02:00:24;0.75;;;0.40;;
48777;SDS011;34578;0.000;0.000;2023-04-24T02:05:27;2.05;;;0.63;;
48777;SDS011;34578;0.000;0.000;2023-04-24T02:10:29;0.80;;;0.30;;
48777;SDS011;34578;0.000;0.000;2023-04-24T02:15:32;3.97;;;0.70;;
48777;SDS011;34578;0.000;0.000;2023-04-24T02:20:32;2.67;;;1.10;;
48777;SDS011;34578;0.000;0.000;2023-04-24T02:25:35;2.28;;;0.73;;
48777;SDS011;34578;0.000;0.000;2023-04-24T02:30:35;1.67;;;0.70;;
48777;SDS011;34578;0.000;0.000;2023-04-24T02:35:36;2.45;;;0.60;;
48777;SDS011;34578;0.000;0.000;2023-04-24T02:40:36;1.00;;;0.47;;
48777;SDS011;34578;0.000;0.000;2023-04-24T02:45:36;1.60;;;0.67;;
48777;SDS011;34578;0.000;0.000;2023-04-24T02:50:38;2.13;;;1.05;;
48777;SDS011;34578;0.000;0.000;2023-04-24T02:55:38;0.73;;;0.57;;
48777;SDS011;34578;0.000;0.000;2023-04-24T03:00:39;0.55;;;0.38;;
48777;SDS011;34578;0.000;0.000;2023-04-24T03:05:40;0.73;;;0.30;;
48777;SDS011;34578;0.000;0.000;2023-04-24T03:10:40;2.20;;;0.75;;
48777;SDS011;34578;0.000;0.000;2023-04-24T03:15:43;1.45;;;0.50;;
48777;SDS011;34578;0.000;0.000;2023-04-24T03:20:45;2.08;;;0.70;;
48777;SDS011;34578;0.000;0.000;2023-04-24T03:25:47;1.88;;;0.70;;
48777;SDS011;34578;0.000;0.000;2023-04-24T03:30:49;1.90;;;0.60;;
48777;SDS011;34578;0.000;0.000;2023-04-24T03:35:51;1.15;;;0.40;;
48777;SDS011;34578;0.000;0.000;2023-04-24T03:40:53;0.65;;;0.40;;
48777;SDS011;34578;0.000;0.000;2023-04-24T03:46:15;2.88;;;0.60;;
48777;SDS011;34578;0.000;0.000;2023-04-24T03:51:21;0.90;;;0.65;;
48777;SDS011;34578;0.000;0.000;2023-04-24T03:56:25;1.10;;;0.40;;
48777;SDS011;34578;0.000;0.000;2023-04-24T04:01:26;0.95;;;0.52;;
48777;SDS011;34578;0.000;0.000;2023-04-24T04:06:33;4.00;;;0.63;;
48777;SDS011;34578;0.000;0.000;2023-04-24T04:11:35;0.88;;;0.35;;
48777;SDS011;34578;0.000;0.000;2023-04-24T04:16:36;0.68;;;0.40;;
48777;SDS011;34578;0.000;0.000;2023-04-24T04:21:37;1.58;;;0.40;;
48777;SDS011;34578;0.000;0.000;2023-04-24T04:26:48;3.85;;;0.93;;
48777;SDS011;34578;0.000;0.000;2023-04-24T04:31:58;4.35;;;0.98;;
48777;SDS011;34578;0.000;0.000;2023-04-24T04:37:00;1.38;;;0.50;;
48777;SDS011;34578;0.000;0.000;2023-04-24T04:42:25;0.57;;;0.40;;
48777;SDS011;34578;0.000;0.000;2023-04-24T04:47:27;1.20;;;0.50;;
48777;SDS011;34578;0.000;0.000;2023-04-24T04:52:30;1.20;;;1.00;;
48777;SDS011;34578;0.000;0.000;2023-04-24T04:57:40;0.50;;;0.30;;
48777;SDS011;34578;0.000;0.000;2023-04-24T05:02:40;2.83;;;0.57;;
48777;SDS011;34578;0.000;0.000;2023-04-24T05:07:41;1.83;;;0.50;;
48777;SDS011;34578;0.000;0.000;2023-04-24T05:12:42;1.13;;;0.28;;
48777;SDS011;34578;0.000;0.000;2023-04-24T05:17:43;4.88;;;0.57;;
48777;SDS011;34578;0.000;0.000;2023-04-24T05:22:44;2.53;;;0.55;;
48777;SDS011;34578;0.000;0.000;2023-04-24T05:27:47;1.38;;;0.73;;
48777;SDS011;34578;0.000;0.000;2023-04-24T05:32:49;3.72;;;0.68;;
48777;SDS011;34578;0.000;0.000;2023-04-24T05:37:50;2.55;;;0.98;;
48777;SDS011;34578;0.000;0.000;2023-04-24T05:42:51;7.40;;;0.88;;
48777;SDS011;34578;0.000;0.000;2023-04-24T05:47:51;1.90;;;0.80;;
48777;SDS011;34578;0.000;0.000;2023-04-24T05:52:52;4.10;;;0.60;;
48777;SDS011;34578;0.000;0.000;2023-04-24T05:57:58;2.60;;;0.70;;
48777;SDS011;34578;0.000;0.000;2023-04-24T06:03:00;2.03;;;0.50;;
48777;SDS011;34578;0.000;0.000;2023-04-24T06:08:01;2.90;;;0.50;;
48777;SDS011;34578;0.000;0.000;2023-04-24T06:13:06;1.65;;;0.98;;
48777;SDS011;34578;0.000;0.000;2023-04-24T06:18:09;0.88;;;0.47;;
48777;SDS011;34578;0.000;0.000;2023-04-24T06:23:14;1.20;;;0.55;;
48777;SDS011;34578;0.000;0.000;2023-04-24T06:28:14;0.70;;;0.50;;
48777;SDS011;34578;0.000;0.000;2023-04-24T06:33:15;4.67;;;0.63;;
48777;SDS011;34578;0.000;0.000;2023-04-24T06:38:16;1.60;;;0.75;;
48777;SDS011;34578;0.000;0.000;2023-04-24T06:43:16;1.17;;;0.60;;
48777;SDS011;34578;0.000;0.000;2023-04-24T06:48:17;4.55;;;0.60;;
48777;SDS011;34578;0.000;0.000;2023-04-24T06:53:17;2.13;;;0.60;;
48777;SDS011;34578;0.000;0.000;2023-04-24T06:58:18;0.27;;;0.27;;
48777;SDS011;34578;0.000;0.000;2023-04-24T07:03:18;2.47;;;1.10;;
48777;SDS011;34578;0.000;0.000;2023-04-24T07:08:18;0.70;;;0.50;;
48777;SDS011;34578;0.000;0.000;2023-04-24T07:13:20;1.08;;;0.60;;
48777;SDS011;34578;0.000;0.000;2023-04-24T07:18:21;1.97;;;0.37;;
48777;SDS011;34578;0.000;0.000;2023-04-24T07:23:21;0.73;;;0.47;;
48777;SDS011;34578;0.000;0.000;2023-04-24T07:28:21;0.80;;;0.40;;
48777;SDS011;34578;0.000;0.000;2023-04-24T07:33:22;1.80;;;0.50;;
48777;SDS011;34578;0.000;0.000;2023-04-24T07:38:22;1.40;;;0.55;;
48777;SDS011;34578;0.000;0.000;2023-04-24T07:43:23;2.10;;;0.70;;
48777;SDS011;34578;0.000;0.000;2023-04-24T07:48:24;2.20;;;0.80;;
48777;SDS011;34578;0.000;0.000;2023-04-24T07:53:26;1.88;;;0.57;;
48777;SDS011;34578;0.000;0.000;2023-04-24T07:58:26;2.17;;;0.70;;
48777;SDS011;34578;0.000;0.000;2023-04-24T08:03:27;1.20;;;0.77;;
48777;SDS011;34578;0.000;0.000;2023-04-24T08:08:27;0.60;;;0.40;;
48777;SDS011;34578;0.000;0.000;2023-04-24T08:13:28;2.35;;;0.50;;
48777;SDS011;34578;0.000;0.000;2023-04-24T08:18:28;0.30;;;0.30;;
48777;SDS011;34578;0.000;0.000;2023-04-24T08:23:29;0.95;;;0.32;;
48777;SDS011;34578;0.000;0.000;2023-04-24T08:28:29;0.47;;;0.22;;
48777;SDS011;34578;0.000;0.000;2023-04-24T08:33:30;0.77;;;0.40;;
48777;SDS011;34578;0.000;0.000;2023-04-24T08:38:34;0.50;;;0.35;;
48777;SDS011;34578;0.000;0.000;2023-04-24T08:43:34;0.60;;;0.30;;
48777;SDS011;34578;0.000;0.000;2023-04-24T08:48:36;1.48;;;0.52;;
48777;SDS011;34578;0.000;0.000;2023-04-24T08:53:38;1.73;;;0.52;;
48777;SDS011;34578;0.000;0.000;2023-04-24T08:58:38;1.17;;;0.40;;
48777;SDS011;34578;0.000;0.000;2023-04-24T09:03:39;0.95;;;0.40;;
48777;SDS011;34578;0.000;0.000;2023-04-24T09:08:40;1.15;;;0.40;;
48777;SDS011;34578;0.000;0.000;2023-04-24T09:13:42;0.30;;;0.20;;
48777;SDS011;34578;0.000;0.000;2023-04-24T09:18:43;3.70;;;0.38;;
48777;SDS011;34578;0.000;0.000;2023-04-24T09:23:43;0.53;;;0.30;;
48777;SDS011;34578;0.000;0.000;2023-04-24T09:28:44;0.40;;;0.40;;
48777;SDS011;34578;0.000;0.000;2023-04-24T09:33:53;0.55;;;0.30;;
48777;SDS011;34578;0.000;0.000;2023-04-24T09:38:57;0.22;;;0.20;;
48777;SDS011;34578;0.000;0.000;2023-04-24T09:44:12;0.40;;;0.30;;
48777;SDS011;34578;0.000;0.000;2023-04-24T09:49:15;1.23;;;0.40;;
48777;SDS011;34578;0.000;0.000;2023-04-24T09:54:20;1.17;;;0.60;;
48777;SDS011;34578;0.000;0.000;2023-04-24T09:59:21;0.70;;;0.50;;
48777;SDS011;34578;0.000;0.000;2023-04-24T10:04:22;1.45;;;0.70;;
48777;SDS011;34578;0.000;0.000;2023-04-24T10:09:25;2.13;;;0.50;;
48777;SDS011;34578;0.000;0.000;2023-04-24T10:14:26;1.08;;;0.57;;
48777;SDS011;34578;0.000;0.000;2023-04-24T10:19:27;1.30;;;0.37;;
48777;SDS011;34578;0.000;0.000;2023-04-24T10:24:29;0.40;;;0.30;;
48777;SDS011;34578;0.000;0.000;2023-04-24T10:29:31;0.50;;;0.40;;
48777;SDS011;34578;0.000;0.000;2023-04-24T10:34:32;0.38;;;0.28;;
48777;SDS011;34578;0.000;0.000;2023-04-24T10:39:32;10.82;;;1.15;;
48777;SDS011;34578;0.000;0.000;2023-04-24T10:44:36;1.60;;;0.40;;
48777;SDS011;34578;0.000;0.000;2023-04-24T10:49:36;1.80;;;0.40;;
48777;SDS011;34578;0.000;0.000;2023-04-24T10:59:40;1.27;;;0.20;;
48777;SDS011;34578;0.000;0.000;2023-04-24T11:04:41;2.35;;;0.60;;
48777;SDS011;34578;0.000;0.000;2023-04-24T11:09:45;4.78;;;0.60;;
48777;SDS011;34578;0.000;0.000;2023-04-24T11:20:03;4.65;;;0.40;;
48777;SDS011;34578;0.000;0.000;2023-04-24T11:25:06;2.70;;;0.35;;
48777;SDS011;34578;0.000;0.000;2023-04-24T11:30:08;0.60;;;0.20;;
48777;SDS011;34578;0.000;0.000;2023-04-24T11:35:20;0.30;;;0.30;;
48777;SDS011;34578;0.000;0.000;2023-04-24T11:40:22;0.80;;;0.30;;
48777;SDS011;34578;0.000;0.000;2023-04-24T11:45:27;0.40;;;0.40;;
48777;SDS011;34578;0.000;0.000;2023-04-24T11:50:28;1.30;;;0.50;;
48777;SDS011;34578;0.000;0.000;2023-04-24T11:55:29;0.35;;;0.35;;
48777;SDS011;34578;0.000;0.000;2023-04-24T12:00:30;0.68;;;0.40;;
48777;SDS011;34578;0.000;0.000;2023-04-24T12:05:34;1.80;;;0.30;;
48777;SDS011;34578;0.000;0.000;2023-04-24T12:10:35;6.13;;;0.77;;
48777;SDS011;34578;0.000;0.000;2023-04-24T12:15:35;5.28;;;0.75;;
48777;SDS011;34578;0.000;0.000;2023-04-24T12:20:40;4.93;;;0.50;;
48777;SDS011;34578;0.000;0.000;2023-04-24T12:25:43;1.27;;;0.38;;
48777;SDS011;34578;0.000;0.000;2023-04-24T12:30:46;0.30;;;0.30;;
48777;SDS011;34578;0.000;0.000;2023-04-24T12:35:51;0.30;;;0.20;;
48777;SDS011;34578;0.000;0.000;2023-04-24T12:41:03;1.65;;;0.52;;
48777;SDS011;34578;0.000;0.000;2023-04-24T12:46:05;0.50;;;0.35;;
48777;SDS011;34578;0.000;0.000;2023-04-24T12:51:05;2.03;;;0.40;;
48777;SDS011;34578;0.000;0.000;2023-04-24T12:56:05;0.70;;;0.30;;
48777;SDS011;34578;0.000;0.000;2023-04-24T13:01:06;2.53;;;0.60;;
48777;SDS011;34578;0.000;0.000;2023-04-24T13:06:06;2.37;;;0.50;;
48777;SDS011;34578;0.000;0.000;2023-04-24T13:11:06;1.00;;;0.57;;
48777;SDS011;34578;0.000;0.000;2023-04-24T13:16:07;6.23;;;1.23;;
48777;SDS011;34578;0.000;0.000;2023-04-24T13:21:07;6.43;;;1.07;;
48777;SDS011;34578;0.000;0.000;2023-04-24T13:26:07;5.20;;;1.10;;
48777;SDS011;34578;0.000;0.000;2023-04-24T13:31:08;1.80;;;0.60;;
48777;SDS011;34578;0.000;0.000;2023-04-24T13:36:09;2.10;;;0.57;;
48777;SDS011;34578;0.000;0.000;2023-04-24T13:41:10;1.13;;;0.50;;
48777;SDS011;34578;0.000;0.000;2023-04-24T13:46:10;4.03;;;0.77;;
48777;SDS011;34578;0.000;0.000;2023-04-24T13:51:11;2.80;;;0.63;;
48777;SDS011;34578;0.000;0.000;2023-04-24T13:56:11;2.67;;;1.13;;
48777;SDS011;34578;0.000;0.000;2023-04-24T14:01:13;4.40;;;0.85;;
48777;SDS011;34578;0.000;0.000;2023-04-24T14:06:15;3.53;;;0.65;;
48777;SDS011;34578;0.000;0.000;2023-04-24T14:11:15;4.07;;;0.93;;
48777;SDS011;34578;0.000;0.000;2023-04-24T14:16:16;2.78;;;0.65;;
48777;SDS011;34578;0.000;0.000;2023-04-24T14:21:16;2.40;;;0.50;;
48777;SDS011;34578;0.000;0.000;2023-04-24T14:26:17;6.53;;;1.37;;
48777;SDS011;34578;0.000;0.000;2023-04-24T14:31:17;7.20;;;1.17;;
48777;SDS011;34578;0.000;0.000;2023-04-24T14:36:17;5.33;;;0.70;;
48777;SDS011;34578;0.000;0.000;2023-04-24T14:41:18;2.25;;;0.90;;
48777;SDS011;34578;0.000;0.000;2023-04-24T14:46:19;7.47;;;0.80;;
48777;SDS011;34578;0.000;0.000;2023-04-24T14:51:20;3.53;;;1.00;;
48777;SDS011;34578;0.000;0.000;2023-04-24T14:56:20;5.47;;;0.90;;
48777;SDS011;34578;0.000;0.000;2023-04-24T15:01:21;3.23;;;0.80;;
48777;SDS011;34578;0.000;0.000;2023-04-24T15:06:21;8.00;;;1.70;;
48777;SDS011;34578;0.000;0.000;2023-04-24T15:11:21;8.90;;;1.20;;
48777;SDS011;34578;0.000;0.000;2023-04-24T15:16:23;3.87;;;1.17;;
48777;SDS011;34578;0.000;0.000;2023-04-24T15:21:24;6.25;;;1.52;;
48777;SDS011;34578;0.000;0.000;2023-04-24T15:26:24;6.85;;;1.02;;
48777;SDS011;34578;0.000;0.000;2023-04-24T15:31:25;16.20;;;1.83;;
48777;SDS011;34578;0.000;0.000;2023-04-24T15:36:25;22.58;;;2.45;;
48777;SDS011;34578;0.000;0.000;2023-04-24T15:41:26;6.93;;;1.63;;
48777;SDS011;34578;0.000;0.000;2023-04-24T15:46:26;9.93;;;1.20;;
48777;SDS011;34578;0.000;0.000;2023-04-24T15:51:26;10.23;;;1.20;;
48777;SDS011;34578;0.000;0.000;2023-04-24T15:56:27;5.57;;;1.50;;
48777;SDS011;34578;0.000;0.000;2023-04-24T16:01:27;9.80;;;1.27;;
48777;SDS011;34578;0.000;0.000;2023-04-24T16:06:28;12.93;;;1.42;;
48777;SDS011;34578;0.000;0.000;2023-04-24T16:11:29;9.15;;;1.05;;
48777;SDS011;34578;0.000;0.000;2023-04-24T16:16:31;10.10;;;1.10;;
48777;SDS011;34578;0.000;0.000;2023-04-24T16:21:32;20.52;;;3.65;;
48777;SDS011;34578;0.000;0.000;2023-04-24T16:26:33;9.85;;;1.20;;
48777;SDS011;34578;0.000;0.000;2023-04-24T16:31:33;12.27;;;1.50;;
48777;SDS011;34578;0.000;0.000;2023-04-24T16:36:36;10.43;;;1.90;;
48777;SDS011;34578;0.000;0.000;2023-04-24T16:41:37;12.20;;;2.20;;
48777;SDS011;34578;0.000;0.000;2023-04-24T16:46:37;15.90;;;2.87;;
48777;SDS011;34578;0.000;0.000;2023-04-24T16:51:37;5.53;;;1.20;;
48777;SDS011;34578;0.000;0.000;2023-04-24T16:56:38;9.00;;;1.33;;
48777;SDS011;34578;0.000;0.000;2023-04-24T17:01:38;9.65;;;1.27;;
48777;SDS011;34578;0.000;0.000;2023-04-24T17:06:39;4.22;;;1.42;;
48777;SDS011;34578;0.000;0.000;2023-04-24T17:11:40;7.32;;;1.10;;
48777;SDS011;34578;0.000;0.000;2023-04-24T17:16:41;7.95;;;1.73;;
48777;SDS011;34578;0.000;0.000;2023-04-24T17:21:41;5.63;;;1.00;;
48777;SDS011;34578;0.000;0.000;2023-04-24T17:26:42;8.57;;;1.33;;
48777;SDS011;34578;0.000;0.000;2023-04-24T17:31:42;6.28;;;1.23;;
48777;SDS011;34578;0.000;0.000;2023-04-24T17:36:42;3.00;;;0.90;;
48777;SDS011;34578;0.000;0.000;2023-04-24T17:41:43;5.27;;;1.10;;
48777;SDS011;34578;0.000;0.000;2023-04-24T17:46:43;13.47;;;1.80;;
48777;SDS011;34578;0.000;0.000;2023-04-24T17:51:43;13.27;;;2.20;;
48777;SDS011;34578;0.000;0.000;2023-04-24T17:56:44;8.43;;;1.38;;
48777;SDS011;34578;0.000;0.000;2023-04-24T18:01:45;2.70;;;1.10;;
48777;SDS011;34578;0.000;0.000;2023-04-24T18:06:45;3.67;;;1.40;;
48777;SDS011;34578;0.000;0.000;2023-04-24T18:11:45;2.90;;;0.93;;
48777;SDS011;34578;0.000;0.000;2023-04-24T18:16:47;7.28;;;1.25;;
48777;SDS011;34578;0.000;0.000;2023-04-24T18:21:47;4.80;;;1.42;;
48777;SDS011;34578;0.000;0.000;2023-04-24T18:26:47;3.07;;;1.17;;
48777;SDS011;34578;0.000;0.000;2023-04-24T18:31:48;4.70;;;0.95;;
48777;SDS011;34578;0.000;0.000;2023-04-24T18:36:48;1.63;;;0.80;;
48777;SDS011;34578;0.000;0.000;2023-04-24T18:41:49;4.07;;;0.82;;
48777;SDS011;34578;0.000;0.000;2023-04-24T18:46:49;4.90;;;1.07;;
48777;SDS011;34578;0.000;0.000;2023-04-24T18:51:51;10.27;;;1.67;;
48777;SDS011;34578;0.000;0.000;2023-04-24T18:56:52;8.65;;;1.55;;
48777;SDS011;34578;0.000;0.000;2023-04-24T19:01:52;6.78;;;1.48;;
48777;SDS011;34578;0.000;0.000;2023-04-24T19:06:53;11.67;;;2.20;;
48777;SDS011;34578;0.000;0.000;2023-04-24T19:11:53;3.03;;;1.10;;
48777;SDS011;34578;0.000;0.000;2023-04-24T19:16:53;3.17;;;0.93;;
48777;SDS011;34578;0.000;0.000;2023-04-24T19:21:54;1.83;;;0.90;;
48777;SDS011;34578;0.000;0.000;2023-04-24T19:26:54;2.03;;;0.73;;
48777;SDS011;34578;0.000;0.000;2023-04-24T19:31:55;2.05;;;0.80;;
48777;SDS011;34578;0.000;0.000;2023-04-24T19:36:57;3.67;;;1.55;;
48777;SDS011;34578;0.000;0.000;2023-04-24T19:41:58;2.35;;;0.85;;
48777;SDS011;34578;0.000;0.000;2023-04-24T19:47:00;1.50;;;0.73;;
48777;SDS011;34578;0.000;0.000;2023-04-24T19:52:00;1.83;;;0.63;;
48777;SDS011;34578;0.000;0.000;2023-04-24T19:57:00;1.33;;;0.50;;
48777;SDS011;34578;0.000;0.000;2023-04-24T20:02:01;1.43;;;1.00;;
48777;SDS011;34578;0.000;0.000;2023-04-24T20:07:01;4.20;;;1.30;;
48777;SDS011;34578;0.000;0.000;2023-04-24T20:12:01;3.47;;;1.20;;
48777;SDS011;34578;0.000;0.000;2023-04-24T20:17:02;1.67;;;0.95;;
48777;SDS011;34578;0.000;0.000;2023-04-24T20:22:02;3.60;;;1.25;;
48777;SDS011;34578;0.000;0.000;2023-04-24T20:27:03;1.17;;;0.80;;
48777;SDS011;34578;0.000;0.000;2023-04-24T20:32:03;2.47;;;1.02;;
48777;SDS011;34578;0.000;0.000;2023-04-24T20:37:04;1.30;;;0.70;;
48777;SDS011;34578;0.000;0.000;2023-04-24T20:42:05;0.98;;;0.85;;
48777;SDS011;34578;0.000;0.000;2023-04-24T20:47:06;2.35;;;1.08;;
48777;SDS011;34578;0.000;0.000;2023-04-24T20:52:07;0.85;;;0.75;;
48777;SDS011;34578;0.000;0.000;2023-04-24T20:57:07;2.17;;;0.98;;
48777;SDS011;34578;0.000;0.000;2023-04-24T21:02:08;1.38;;;1.10;;
48777;SDS011;34578;0.000;0.000;2023-04-24T21:07:08;2.20;;;1.30;;
48777;SDS011;34578;0.000;0.000;2023-04-24T21:12:10;4.28;;;1.10;;
48777;SDS011;34578;0.000;0.000;2023-04-24T21:17:11;2.30;;;1.07;;
48777;SDS011;34578;0.000;0.000;2023-04-24T21:22:11;1.23;;;0.80;;
48777;SDS011;34578;0.000;0.000;2023-04-24T21:27:11;1.10;;;0.70;;
48777;SDS011;34578;0.000;0.000;2023-04-24T21:32:12;1.00;;;0.80;;
48777;SDS011;34578;0.000;0.000;2023-04-24T21:37:12;1.97;;;1.07;;
48777;SDS011;34578;0.000;0.000;2023-04-24T21:42:15;2.55;;;1.10;;
48777;SDS011;34578;0.000;0.000;2023-04-24T21:47:16;1.50;;;0.90;;
48777;SDS011;34578;0.000;0.000;2023-04-24T21:52:16;1.53;;;1.00;;
48777;SDS011;34578;0.000;0.000;2023-04-24T21:57:19;2.03;;;0.82;;
48777;SDS011;34578;0.000;0.000;2023-04-24T22:02:19;2.85;;;1.05;;
48777;SDS011;34578;0.000;0.000;2023-04-24T22:07:20;1.38;;;0.93;;
48777;SDS011;34578;0.000;0.000;2023-04-24T22:12:21;1.35;;;1.08;;
48777;SDS011;34578;0.000;0.000;2023-04-24T22:17:21;1.10;;;0.82;;
48777;SDS011;34578;0.000;0.000;2023-04-24T22:22:23;1.70;;;1.13;;
48777;SDS011;34578;0.000;0.000;2023-04-24T22:27:23;3.28;;;1.40;;
48777;SDS011;34578;0.000;0.000;2023-04-24T22:32:24;1.03;;;0.93;;
48777;SDS011;34578;0.000;0.000;2023-04-24T22:37:24;2.65;;;1.20;;
48777;SDS011;34578;0.000;0.000;2023-04-24T22:42:24;3.17;;;1.00;;
48777;SDS011;34578;0.000;0.000;2023-04-24T22:47:25;3.37;;;1.40;;
48777;SDS011;34578;0.000;0.000;2023-04-24T22:52:25;2.50;;;1.07;;
48777;SDS011;34578;0.000;0.000;2023-04-24T22:57:27;1.95;;;1.00;;
48777;SDS011;34578;0.000;0.000;2023-04-24T23:02:28;22.95;;;1.98;;
48777;SDS011;34578;0.000;0.000;2023-04-24T23:07:29;2.50;;;1.00;;
48777;SDS011;34578;0.000;0.000;2023-04-24T23:12:29;2.03;;;1.23;;
48777;SDS011;34578;0.000;0.000;2023-04-24T23:17:30;3.70;;;1.33;;
48777;SDS011;34578;0.000;0.000;2023-04-24T23:22:30;1.63;;;1.10;;
48777;SDS011;34578;0.000;0.000;2023-04-24T23:27:31;2.53;;;1.10;;
48777;SDS011;34578;0.000;0.000;2023-04-24T23:32:31;2.47;;;1.10;;
48777;SDS011;34578;0.000;0.000;2023-04-24T23:37:32;3.20;;;0.90;;
48777;SDS011;34578;0.000;0.000;2023-04-24T23:42:32;2.17;;;1.07;;
48777;SDS011;34578;0.000;0.000;2023-04-24T23:47:32;1.40;;;1.17;;
48777;SDS011;34578;0.000;0.000;2023-04-24T23:52:33;1.47;;;1.10;;
48777;SDS011;34578;0.000;0.000;2023-04-24T23:57:35;2.08;;;1.30;;
